Time;durP1;ratioP1;P1;durP2;ratioP2;P2;SDS_P1;SDS_P2;PMS_P1;PMS_P2;Temp;Humidity;BMP_temperature;BMP_pressure;BME280_temperature;BME280_humidity;BME280_pressure;Samples;Min_cycle;Max_cycle;Signal;HPM_P1;HPM_P2
2023/06/07 10:10:51;;;;;;;3.97;3.20;;;24.80;99.90;;;;;;5093198;27;20534;-74
2023/06/07 10:13:19;;;;;;;4.40;3.17;;;25.50;99.90;;;;;;5080969;28;20213;-75
2023/06/07 10:15:46;;;;;;;4.15;3.40;;;25.10;1.00;;;;;;5080671;28;20205;-77
2023/06/07 10:18:21;;;;;;;3.85;3.30;;;25.20;1.00;;;;;;5080907;28;20286;-77
2023/06/07 10:21:15;;;;;;;3.25;2.95;;;25.10;1.00;;;;;;5080012;28;20185;-75
2023/06/07 10:23:53;;;;;;;3.85;2.88;;;24.90;1.00;;;;;;5077238;28;20284;-79
2023/06/07 10:26:28;;;;;;;4.40;2.53;;;24.70;1.00;;;;;;5082391;28;20177;-79
2023/06/07 10:29:06;;;;;;;3.13;2.45;;;24.80;1.00;;;;;;5081178;28;20663;-80
2023/06/07 10:31:35;;;;;;;3.38;2.85;;;;;;;;;;5081198;28;20211;-78
2023/06/07 10:34:07;;;;;;;3.10;2.90;;;25.20;99.90;;;;;;5081658;28;20166;-79
2023/06/07 10:36:42;;;;;;;2.95;2.65;;;25.10;1.00;;;;;;5081872;28;20165;-74
2023/06/07 10:39:11;;;;;;;3.47;2.97;;;25.10;1.00;;;;;;5081334;28;20184;-74
2023/06/07 10:41:37;;;;;;;3.70;2.70;;;25.20;1.00;;;;;;5080514;28;20177;-74
2023/06/07 10:44:03;;;;;;;3.53;2.78;;;24.80;1.00;;;;;;5081071;28;20191;-74
2023/06/07 10:46:29;;;;;;;4.32;2.67;;;24.30;99.90;;;;;;5080920;28;20217;-74
2023/06/07 10:48:59;;;;;;;3.47;2.92;;;24.50;99.90;;;;;;5080543;28;20230;-74
2023/06/07 10:51:53;;;;;;;3.50;2.60;;;24.60;1.00;;;;;;5080216;28;20168;-75
2023/06/07 10:54:32;;;;;;;3.10;2.80;;;24.60;1.00;;;;;;5079244;28;20617;-75
2023/06/07 10:56:59;;;;;;;3.08;2.88;;;24.60;1.00;;;;;;5074773;28;21274;-74
2023/06/07 10:59:25;;;;;;;2.88;2.67;;;24.80;1.00;;;;;;5078422;28;20180;-74
2023/06/07 11:01:54;;;;;;;4.10;3.80;;;24.90;1.00;;;;;;5079540;28;20236;-76
2023/06/07 11:04:49;;;;;;;3.30;3.05;;;24.90;1.00;;;;;;5080988;28;20189;-72
2023/06/07 11:07:20;;;;;;;3.42;3.13;;;25.00;1.00;;;;;;5076737;28;20301;-73
2023/06/07 11:09:48;;;;;;;5.10;2.80;;;25.00;1.00;;;;;;5080182;28;20208;-73
2023/06/07 11:12:36;;;;;;;3.40;2.80;;;25.10;1.00;;;;;;5080000;28;20254;-74
2023/06/07 11:15:27;;;;;;;2.72;2.53;;;25.30;1.00;;;;;;5080506;28;20265;-73
2023/06/07 11:18:01;;;;;;;2.60;2.40;;;25.30;1.00;;;;;;5075439;28;20216;-75
2023/06/07 11:20:38;;;;;;;2.50;2.30;;;25.20;1.00;;;;;;5076341;28;20290;-74
2023/06/07 11:23:27;;;;;;;2.88;2.58;;;24.90;1.00;;;;;;5067129;28;20199;-74
2023/06/07 11:26:13;;;;;;;3.05;2.83;;;25.30;99.90;;;;;;5066846;28;20187;-76
2023/06/07 11:28:40;;;;;;;3.78;2.97;;;24.90;1.00;;;;;;5062830;28;20219;-74
2023/06/07 11:31:12;;;;;;;4.45;3.28;;;24.90;1.00;;;;;;5063776;28;20192;-74
2023/06/07 11:33:40;;;;;;;4.35;2.83;;;24.90;1.00;;;;;;5066329;28;20250;-74
2023/06/07 11:36:06;;;;;;;3.78;2.85;;;25.00;1.00;;;;;;5066510;28;20173;-75
2023/06/07 11:38:32;;;;;;;3.10;2.90;;;24.70;1.00;;;;;;5066710;28;21168;-74
2023/06/07 11:40:58;;;;;;;5.55;2.83;;;24.60;99.90;;;;;;5065898;28;21124;-74
2023/06/07 11:43:25;;;;;;;5.60;3.20;;;24.80;1.00;;;;;;5066113;28;20188;-74
2023/06/07 11:45:55;;;;;;;3.72;3.10;;;24.70;1.00;;;;;;5066525;28;20178;-74
2023/06/07 11:48:20;;;;;;;3.10;2.78;;;23.80;1.00;;;;;;5066415;28;20293;-74
2023/06/07 11:50:47;;;;;;;3.60;3.30;;;;;;;;;;5065326;28;20312;-74
2023/06/07 11:53:15;;;;;;;3.58;2.83;;;24.40;1.00;;;;;;5066425;28;20261;-74
2023/06/07 11:55:41;;;;;;;3.33;3.03;;;;;;;;;;5066288;28;20178;-73
2023/06/07 11:58:07;;;;;;;3.72;2.90;;;;;;;;;;5066046;28;20197;-74
2023/06/07 12:00:35;;;;;;;3.53;3.10;;;24.20;99.90;;;;;;5065157;28;20181;-74
2023/06/07 12:03:02;;;;;;;5.88;2.92;;;24.10;1.00;;;;;;5061996;28;20215;-75
2023/06/07 12:05:31;;;;;;;4.03;3.30;;;23.90;1.00;;;;;;5062036;28;20426;-73
2023/06/07 12:08:05;;;;;;;4.28;3.10;;;23.70;1.00;;;;;;5064926;28;20980;-75
2023/06/07 12:10:38;;;;;;;3.47;3.10;;;23.60;1.00;;;;;;5063315;28;20209;-74
2023/06/07 12:13:16;;;;;;;5.30;3.05;;;23.60;1.00;;;;;;5065693;28;20177;-74
2023/06/07 12:15:46;;;;;;;3.20;3.00;;;23.50;1.00;;;;;;5065620;28;20655;-73
2023/06/07 12:18:16;;;;;;;3.13;2.67;;;23.50;1.00;;;;;;5065975;28;20193;-74
2023/06/07 12:20:43;;;;;;;3.40;3.10;;;23.30;1.00;;;;;;5065802;28;20277;-74
2023/06/07 12:23:10;;;;;;;3.47;3.03;;;23.20;1.00;;;;;;5065555;28;20209;-75
2023/06/07 12:25:36;;;;;;;4.65;3.00;;;23.10;1.00;;;;;;5064312;28;20192;-74
2023/06/07 12:28:06;;;;;;;4.13;3.00;;;;;;;;;;5064432;28;20562;-74
2023/06/07 12:30:37;;;;;;;3.53;3.22;;;23.00;1.00;;;;;;5065823;28;20201;-74
2023/06/07 12:33:03;;;;;;;4.82;3.25;;;23.00;1.00;;;;;;5063224;28;20224;-75
2023/06/07 12:35:38;;;;;;;3.22;2.97;;;22.80;1.00;;;;;;5060615;28;20189;-74
2023/06/07 12:38:05;;;;;;;4.43;3.00;;;;;;;;;;5064261;28;20317;-75
2023/06/07 12:40:30;;;;;;;3.47;3.15;;;22.60;99.90;;;;;;5065481;28;20645;-75
2023/06/07 12:42:56;;;;;;;3.47;3.17;;;22.60;1.00;;;;;;5058314;28;20192;-74
2023/06/07 12:45:23;;;;;;;3.67;3.05;;;;;;;;;;5063851;28;20185;-74
2023/06/07 12:47:49;;;;;;;3.85;3.55;;;;;;;;;;5063535;28;20205;-74
2023/06/07 12:50:14;;;;;;;3.20;2.90;;;21.90;1.00;;;;;;5063629;28;20201;-75
2023/06/07 12:56:02;;;;;;;5.10;3.53;;;21.50;1.00;;;;;;5072610;28;20228;-75
2023/06/07 12:58:27;;;;;;;3.80;3.30;;;21.20;1.00;;;;;;5058530;28;20205;-75
2023/06/07 13:00:53;;;;;;;3.45;3.10;;;;;;;;;;5064539;28;20634;-75
2023/06/07 13:03:20;;;;;;;3.70;3.33;;;;;;;;;;5064783;28;20225;-75
2023/06/07 13:05:46;;;;;;;4.30;3.25;;;;;;;;;;5061143;28;20212;-76
2023/06/07 13:08:13;;;;;;;3.75;3.30;;;21.20;1.00;;;;;;5063284;28;20275;-75
2023/06/07 13:10:39;;;;;;;4.85;3.40;;;21.30;1.00;;;;;;5063325;28;20209;-75
2023/06/07 13:13:05;;;;;;;5.30;3.45;;;21.30;1.00;;;;;;5062674;28;20652;-74
2023/06/07 13:15:31;;;;;;;3.72;3.20;;;21.40;1.00;;;;;;5064788;28;20173;-75
2023/06/07 13:17:56;;;;;;;4.95;3.80;;;21.50;1.00;;;;;;5064384;28;20212;-75
2023/06/07 13:20:22;;;;;;;3.58;2.90;;;21.40;1.00;;;;;;5064854;28;20272;-74
2023/06/07 13:22:48;;;;;;;3.55;3.25;;;21.40;1.00;;;;;;5064335;28;20181;-74
2023/06/07 13:25:14;;;;;;;3.55;3.25;;;21.50;1.00;;;;;;5059081;28;20262;-75
2023/06/07 13:27:41;;;;;;;3.42;2.90;;;21.60;1.00;;;;;;5063875;28;20251;-75
2023/06/07 13:30:07;;;;;;;3.40;3.10;;;21.70;60.50;;;;;;5063595;28;20219;-75
2023/06/07 13:32:33;;;;;;;3.75;3.45;;;21.60;99.90;;;;;;5061819;28;20178;-74
2023/06/07 13:34:59;;;;;;;2.97;2.78;;;22.00;1.00;;;;;;5063878;28;20177;-75
2023/06/07 13:37:26;;;;;;;4.60;3.33;;;22.20;1.00;;;;;;5063799;28;20711;-77
2023/06/07 13:39:52;;;;;;;4.43;2.88;;;22.60;99.90;;;;;;5062916;28;20272;-76
2023/06/07 13:42:21;;;;;;;4.38;2.95;;;22.50;1.00;;;;;;5062330;28;20253;-78
2023/06/07 13:44:47;;;;;;;3.60;3.30;;;22.60;1.00;;;;;;5063436;28;20545;-75
2023/06/07 13:47:13;;;;;;;3.10;2.90;;;22.70;1.00;;;;;;5062677;28;20208;-75
2023/06/07 13:49:39;;;;;;;3.30;3.00;;;22.90;1.00;;;;;;5064128;28;20220;-75
2023/06/07 13:52:06;;;;;;;3.38;3.08;;;23.10;1.00;;;;;;5062328;28;20182;-75
2023/06/07 13:54:32;;;;;;;3.80;3.17;;;26.00;1.00;;;;;;5063733;28;20208;-74
2023/06/07 13:56:58;;;;;;;3.72;3.10;;;23.50;1.00;;;;;;5063607;28;20197;-74
2023/06/07 13:59:24;;;;;;;3.95;3.13;;;23.70;1.00;;;;;;5063730;28;20751;-74
2023/06/07 14:01:50;;;;;;;4.03;3.20;;;23.90;1.00;;;;;;5063232;28;20292;-76
2023/06/07 14:04:16;;;;;;;5.05;3.25;;;;;;;;;;5064245;28;20181;-74
2023/06/07 14:06:42;;;;;;;3.90;3.58;;;23.70;1.00;;;;;;5062831;28;20193;-76
2023/06/07 14:09:08;;;;;;;3.75;3.13;;;23.30;1.00;;;;;;5063453;28;20216;-75
2023/06/07 14:11:36;;;;;;;3.53;3.10;;;23.50;1.00;;;;;;5062071;28;20177;-76
2023/06/07 14:14:02;;;;;;;3.42;3.13;;;23.40;1.00;;;;;;5063939;28;20582;-76
2023/06/07 14:16:27;;;;;;;3.53;3.10;;;23.20;1.00;;;;;;5064077;28;20181;-74
2023/06/07 14:18:53;;;;;;;6.07;3.78;;;23.30;1.00;;;;;;5063662;28;20197;-75
2023/06/07 14:21:19;;;;;;;3.65;3.17;;;23.30;1.00;;;;;;5063998;28;20177;-74
2023/06/07 14:23:45;;;;;;;3.50;3.10;;;23.50;1.00;;;;;;5064496;28;20213;-74
2023/06/07 14:26:10;;;;;;;4.95;3.58;;;23.50;1.00;;;;;;5064634;28;20192;-74
2023/06/07 14:28:36;;;;;;;5.50;3.75;;;23.40;1.00;;;;;;5063904;28;20258;-75
2023/06/07 14:31:02;;;;;;;7.93;3.65;;;23.50;1.00;;;;;;5064011;28;20649;-74
2023/06/07 14:33:27;;;;;;;3.42;3.13;;;23.60;1.00;;;;;;5063265;28;20387;-75
2023/06/07 14:35:53;;;;;;;4.50;3.33;;;23.90;1.00;;;;;;5064654;28;20173;-75
2023/06/07 14:38:18;;;;;;;3.78;3.03;;;23.90;1.00;;;;;;5064249;28;20205;-75
2023/06/07 14:40:44;;;;;;;3.40;3.08;;;24.10;1.00;;;;;;5064391;28;20305;-75
2023/06/07 14:43:10;;;;;;;3.80;3.30;;;24.30;1.00;;;;;;5064316;28;20182;-74
2023/06/07 14:45:36;;;;;;;4.00;3.40;;;;;;;;;;5062583;28;20648;-76
2023/06/07 14:48:02;;;;;;;3.75;3.45;;;24.50;99.90;;;;;;5063194;28;20208;-75
2023/06/07 14:50:27;;;;;;;3.88;3.50;;;24.50;1.00;;;;;;5064277;28;20208;-75
2023/06/07 14:52:53;;;;;;;3.47;3.17;;;24.50;1.00;;;;;;5063943;28;20177;-75
2023/06/07 14:55:19;;;;;;;3.60;3.30;;;24.70;1.00;;;;;;5064056;28;20255;-75
2023/06/07 14:57:44;;;;;;;3.80;3.50;;;25.00;1.00;;;;;;5068122;28;20692;-75
2023/06/07 15:00:11;;;;;;;4.63;3.67;;;;;;;;;;5067386;28;20246;-76
2023/06/07 15:02:37;;;;;;;3.63;3.33;;;24.60;99.90;;;;;;5067060;28;20188;-74
2023/06/07 15:05:03;;;;;;;4.18;3.45;;;24.40;1.00;;;;;;5068373;28;20181;-75
2023/06/07 15:07:29;;;;;;;3.78;3.33;;;;;;;;;;5067931;28;20304;-76
2023/06/07 15:09:55;;;;;;;3.70;3.40;;;;;;;;;;5067848;28;20244;-76
2023/06/07 15:12:21;;;;;;;4.18;3.40;;;;;;;;;;5067190;28;20177;-78
2023/06/07 15:14:47;;;;;;;4.40;3.35;;;24.10;1.00;;;;;;5067433;28;20234;-78
2023/06/07 15:17:13;;;;;;;4.13;3.70;;;24.10;1.00;;;;;;5066781;28;20201;-76
2023/06/07 15:19:39;;;;;;;4.10;3.80;;;24.20;1.00;;;;;;5068630;28;20596;-76
2023/06/07 15:22:05;;;;;;;4.38;3.97;;;23.70;99.90;;;;;;5066174;28;20874;-76
2023/06/07 15:24:30;;;;;;;4.20;3.80;;;24.00;1.00;;;;;;5067257;28;20276;-75
2023/06/07 15:26:56;;;;;;;4.00;3.67;;;24.00;1.00;;;;;;5067641;28;20253;-75
2023/06/07 15:29:22;;;;;;;5.05;4.05;;;23.30;99.90;;;;;;5067458;28;20205;-76
2023/06/07 15:31:48;;;;;;;5.70;4.18;;;23.20;99.90;;;;;;5066634;28;20278;-76
2023/06/07 15:34:14;;;;;;;5.00;3.80;;;23.50;1.00;;;;;;5067028;28;20173;-76
2023/06/07 15:36:40;;;;;;;4.03;3.65;;;;;;;;;;5067602;28;20231;-75
2023/06/07 15:39:06;;;;;;;5.18;3.88;;;;;;;;;;5067215;28;20220;-76
2023/06/07 15:41:32;;;;;;;5.65;4.05;;;23.60;99.90;;;;;;5061895;28;20588;-75
2023/06/07 15:44:00;;;;;;;4.40;4.00;;;23.90;1.00;;;;;;5064808;28;20185;-75
2023/06/07 15:46:26;;;;;;;7.43;4.05;;;23.80;1.00;;;;;;5064410;28;20178;-75
2023/06/07 15:48:51;;;;;;;7.20;4.25;;;23.80;1.00;;;;;;5064559;28;20207;-75
2023/06/07 15:51:18;;;;;;;4.80;3.53;;;23.60;1.00;;;;;;5064570;28;20185;-74
2023/06/07 15:53:45;;;;;;;3.90;3.60;;;;;;;;;;5066385;28;20181;-70
2023/06/07 15:56:12;;;;;;;4.13;3.72;;;23.50;99.90;;;;;;5066323;28;20547;-73
2023/06/07 15:58:38;;;;;;;4.22;3.92;;;;;;;;;;5066320;28;20202;-72
2023/06/07 16:01:04;;;;;;;4.97;3.67;;;23.40;1.00;;;;;;5066172;28;20182;-74
2023/06/07 16:03:30;;;;;;;4.70;3.88;;;;;;;;;;5065701;28;20177;-72
2023/06/07 16:05:56;;;;;;;4.18;3.78;;;;;;;;;;5065903;28;20186;-74
2023/06/07 16:08:22;;;;;;;5.10;4.35;;;23.60;99.90;;;;;;5065859;28;20202;-74
2023/06/07 16:10:47;;;;;;;4.40;3.83;;;23.00;1.00;;;;;;5065860;28;20214;-73
2023/06/07 16:13:13;;;;;;;4.40;4.00;;;;;;;;;;5065434;28;20188;-73
2023/06/07 16:15:40;;;;;;;5.43;4.18;;;;;;;;;;5065722;28;20190;-75
2023/06/07 16:18:05;;;;;;;4.75;4.30;;;;;;;;;;5065576;28;20276;-74
2023/06/07 16:20:31;;;;;;;4.97;4.57;;;22.80;1.00;;;;;;5065885;28;20314;-73
2023/06/07 16:22:57;;;;;;;5.13;4.57;;;23.20;1.00;;;;;;5065076;28;20177;-74
2023/06/07 16:25:23;;;;;;;4.97;4.57;;;;;;;;;;5061180;28;20186;-74
2023/06/07 16:27:48;;;;;;;5.20;4.63;;;22.80;1.00;;;;;;5063303;28;20240;-74
2023/06/07 16:30:14;;;;;;;4.80;4.40;;;23.30;1.00;;;;;;5063438;28;20297;-74
2023/06/07 16:32:40;;;;;;;5.47;4.88;;;;;;;;;;5062746;28;20606;-73
2023/06/07 16:35:06;;;;;;;5.22;4.82;;;;;;;;;;5063431;28;20556;-73
2023/06/07 16:37:32;;;;;;;5.80;4.60;;;22.90;99.90;;;;;;5060520;28;20224;-73
2023/06/07 16:39:58;;;;;;;4.95;4.45;;;;;;;;;;5061245;28;20664;-73
2023/06/07 16:42:24;;;;;;;5.40;4.90;;;23.00;99.90;;;;;;5061973;28;20326;-75
2023/06/07 16:44:50;;;;;;;5.03;4.63;;;;;;;;;;5063691;28;20190;-74
2023/06/07 16:47:15;;;;;;;5.65;4.72;;;24.00;99.90;;;;;;5064513;28;20664;-73
2023/06/07 16:49:41;;;;;;;5.70;5.15;;;;;;;;;;5064282;28;20212;-73
2023/06/07 16:52:07;;;;;;;5.35;4.82;;;23.80;1.00;;;;;;5064168;28;20611;-74
2023/06/07 16:54:33;;;;;;;5.30;4.80;;;23.60;1.00;;;;;;5065201;28;20265;-75
2023/06/07 16:56:58;;;;;;;5.32;4.82;;;23.80;1.00;;;;;;5064993;28;20673;-74
2023/06/07 16:59:24;;;;;;;4.97;4.55;;;23.60;1.00;;;;;;5062051;28;20272;-73
2023/06/07 17:01:50;;;;;;;4.78;4.38;;;23.60;1.00;;;;;;5062935;28;20194;-73
2023/06/07 17:04:17;;;;;;;6.60;4.93;;;23.70;1.00;;;;;;5063518;28;20185;-74
2023/06/07 17:06:42;;;;;;;5.15;4.70;;;23.70;1.00;;;;;;5062663;28;20174;-74
2023/06/07 17:09:08;;;;;;;5.55;5.05;;;23.60;1.00;;;;;;5063911;28;20240;-75
2023/06/07 17:11:35;;;;;;;5.55;4.80;;;23.50;1.00;;;;;;5062495;28;20568;-74
2023/06/07 17:14:01;;;;;;;5.13;4.63;;;23.30;1.00;;;;;;5061307;28;20181;-74
2023/06/07 17:16:27;;;;;;;6.10;4.20;;;23.30;1.00;;;;;;5062874;28;20700;-74
2023/06/07 17:18:53;;;;;;;5.10;4.60;;;22.90;1.00;;;;;;5063093;28;21036;-74
2023/06/07 17:21:18;;;;;;;4.20;3.80;;;22.90;1.00;;;;;;5063718;28;20189;-73
2023/06/07 17:23:45;;;;;;;5.25;4.75;;;22.70;1.00;;;;;;5064260;28;20536;-74
2023/06/07 17:26:11;;;;;;;5.07;4.68;;;22.60;1.00;;;;;;5063870;28;20181;-74
2023/06/07 17:28:37;;;;;;;4.85;4.35;;;23.00;1.00;;;;;;5063881;28;21165;-73
2023/06/07 17:31:04;;;;;;;5.72;4.88;;;22.30;1.00;;;;;;5064467;28;20178;-75
2023/06/07 17:33:29;;;;;;;5.22;4.72;;;22.50;1.00;;;;;;5063459;28;20173;-74
2023/06/07 17:35:55;;;;;;;5.35;4.85;;;22.10;1.00;;;;;;5064309;28;20596;-74
2023/06/07 17:38:21;;;;;;;6.45;5.63;;;22.00;1.00;;;;;;5064514;28;20222;-74
2023/06/07 17:40:47;;;;;;;4.90;4.50;;;22.70;1.00;;;;;;5064146;28;20217;-72
2023/06/07 17:43:12;;;;;;;5.00;4.50;;;21.70;1.00;;;;;;5061741;28;20234;-75
2023/06/07 17:45:38;;;;;;;5.65;5.15;;;21.70;1.00;;;;;;5063614;28;20193;-72
2023/06/07 17:48:04;;;;;;;4.82;4.43;;;21.70;1.00;;;;;;5063584;28;20201;-75
2023/06/07 17:50:30;;;;;;;5.30;4.80;;;21.50;1.00;;;;;;5064250;28;20201;-73
2023/06/07 17:52:56;;;;;;;4.93;4.53;;;22.40;1.00;;;;;;5063463;28;20546;-73
2023/06/07 17:55:22;;;;;;;5.40;4.90;;;21.10;1.00;;;;;;5063306;28;20295;-74
2023/06/07 17:57:48;;;;;;;5.20;4.70;;;21.00;1.00;;;;;;5062402;28;20208;-72
2023/06/07 18:00:14;;;;;;;4.95;4.55;;;20.90;1.00;;;;;;5061981;28;20181;-74
2023/06/07 18:02:40;;;;;;;5.50;5.00;;;20.90;1.00;;;;;;5060590;28;20193;-73
2023/06/07 18:05:06;;;;;;;5.72;5.03;;;20.70;1.00;;;;;;5064161;28;20187;-74
2023/06/07 18:07:31;;;;;;;5.50;4.88;;;20.60;1.00;;;;;;5063421;28;20201;-72
2023/06/07 18:09:57;;;;;;;5.25;4.75;;;20.60;1.00;;;;;;5062870;28;20815;-73
2023/06/07 18:12:23;;;;;;;8.43;5.30;;;20.50;1.00;;;;;;5063496;28;20886;-74
2023/06/07 18:14:48;;;;;;;6.43;5.07;;;20.50;1.00;;;;;;5063893;28;20192;-73
2023/06/07 18:17:14;;;;;;;5.45;5.05;;;21.10;1.00;;;;;;5063959;28;20197;-73
2023/06/07 18:19:41;;;;;;;5.80;5.30;;;20.70;1.00;;;;;;5063879;28;20224;-73
2023/06/07 18:22:07;;;;;;;5.68;5.20;;;20.20;1.00;;;;;;5063623;28;20181;-73
2023/06/07 18:24:33;;;;;;;5.93;5.43;;;20.00;1.00;;;;;;5062047;28;20200;-74
2023/06/07 18:26:58;;;;;;;5.88;5.30;;;19.90;1.00;;;;;;5061629;28;20284;-74
2023/06/07 18:29:25;;;;;;;5.57;4.85;;;19.90;1.00;;;;;;5060808;28;20235;-75
2023/06/07 18:31:50;;;;;;;6.20;5.40;;;19.80;1.00;;;;;;5065777;28;20261;-74
2023/06/07 18:34:19;;;;;;;6.10;5.55;;;19.70;1.00;;;;;;5068024;28;20252;-74
2023/06/07 18:36:51;;;;;;;6.13;5.57;;;20.20;1.00;;;;;;5066683;28;20538;-73
2023/06/07 18:39:17;;;;;;;5.68;5.18;;;19.60;1.00;;;;;;5067113;28;20189;-75
2023/06/07 18:41:44;;;;;;;7.03;6.43;;;19.50;1.00;;;;;;5066276;28;20744;-72
2023/06/07 18:44:10;;;;;;;7.05;5.80;;;19.50;1.00;;;;;;5067175;28;20662;-74
2023/06/07 18:46:36;;;;;;;6.68;6.05;;;19.30;1.00;;;;;;5067571;28;20197;-75
2023/06/07 18:49:01;;;;;;;6.43;5.93;;;19.40;1.00;;;;;;5067216;28;20680;-73
2023/06/07 18:51:27;;;;;;;6.32;5.82;;;19.30;1.00;;;;;;5067081;28;20173;-73
2023/06/07 18:53:53;;;;;;;5.60;5.10;;;19.60;1.00;;;;;;5066235;28;21125;-73
2023/06/07 18:56:19;;;;;;;6.07;5.57;;;19.50;1.00;;;;;;5064135;28;20663;-75
2023/06/07 18:58:45;;;;;;;6.07;5.57;;;19.10;1.00;;;;;;5062841;28;20201;-74
2023/06/07 19:01:14;;;;;;;6.13;5.53;;;19.10;1.00;;;;;;5063608;28;20883;-73
2023/06/07 19:03:41;;;;;;;6.15;5.55;;;18.90;1.00;;;;;;5064664;28;20664;-74
2023/06/07 19:06:09;;;;;;;7.43;5.90;;;19.00;1.00;;;;;;5064846;28;20545;-74
2023/06/07 19:08:35;;;;;;;6.18;5.55;;;18.90;1.00;;;;;;5064641;28;20197;-74
2023/06/07 19:11:02;;;;;;;6.25;5.68;;;18.80;1.00;;;;;;5064794;28;20711;-73
2023/06/07 19:13:28;;;;;;;5.32;4.93;;;18.70;1.00;;;;;;5064492;28;20182;-73
2023/06/07 19:15:54;;;;;;;6.35;5.85;;;18.50;1.00;;;;;;5064931;28;20876;-74
2023/06/07 19:18:21;;;;;;;7.28;5.75;;;18.60;1.00;;;;;;5063453;28;20216;-73
2023/06/07 19:20:46;;;;;;;5.93;5.50;;;18.50;1.00;;;;;;5064773;28;20221;-74
2023/06/07 19:23:14;;;;;;;6.22;5.63;;;18.50;1.00;;;;;;5064323;28;20718;-75
2023/06/07 19:25:40;;;;;;;6.45;5.95;;;18.40;1.00;;;;;;5065101;28;20189;-73
2023/06/07 19:28:06;;;;;;;6.63;6.13;;;18.30;1.00;;;;;;5064549;28;21067;-73
2023/06/07 19:30:33;;;;;;;7.20;6.57;;;18.30;1.00;;;;;;5064776;28;20251;-72
2023/06/07 19:32:59;;;;;;;6.47;5.90;;;18.20;1.00;;;;;;5064198;28;20178;-73
2023/06/07 19:35:25;;;;;;;8.85;7.93;;;18.20;1.00;;;;;;5064265;28;20217;-73
2023/06/07 19:37:51;;;;;;;7.05;6.45;;;18.10;1.00;;;;;;5064522;28;20198;-74
2023/06/07 19:40:17;;;;;;;6.80;6.25;;;18.10;1.00;;;;;;5064473;28;20212;-73
2023/06/07 19:42:44;;;;;;;6.93;6.22;;;18.00;1.00;;;;;;5063659;28;20182;-74
2023/06/07 19:45:11;;;;;;;6.82;5.90;;;18.00;1.00;;;;;;5064405;28;20181;-72
2023/06/07 19:47:37;;;;;;;6.70;6.07;;;17.90;1.00;;;;;;5063859;28;20209;-75
2023/06/07 19:50:03;;;;;;;6.93;6.32;;;17.90;1.00;;;;;;5064779;28;20197;-74
2023/06/07 19:52:30;;;;;;;7.10;6.43;;;17.80;1.00;;;;;;5063770;28;20188;-72
2023/06/07 19:54:57;;;;;;;6.88;6.28;;;17.80;1.00;;;;;;5064416;28;20181;-72
2023/06/07 19:57:23;;;;;;;6.90;6.30;;;17.70;14.80;;;;;;5062201;28;20296;-74
2023/06/07 19:59:49;;;;;;;7.05;6.35;;;17.70;9.20;;;;;;5062459;28;20265;-74
2023/06/07 20:02:15;;;;;;;6.85;6.22;;;17.60;9.40;;;;;;5063218;28;20243;-72
2023/06/07 20:04:42;;;;;;;6.93;6.35;;;17.60;19.30;;;;;;5062662;28;20599;-72
2023/06/07 20:07:09;;;;;;;6.63;6.03;;;17.60;30.50;;;;;;5062932;28;20430;-72
2023/06/07 20:09:37;;;;;;;7.28;6.25;;;17.60;27.60;;;;;;5063721;28;20541;-75
2023/06/07 20:12:03;;;;;;;7.38;6.55;;;18.00;34.70;;;;;;5063130;28;20182;-75
2023/06/07 20:14:29;;;;;;;6.97;6.38;;;17.50;24.20;;;;;;5063883;28;20293;-74
2023/06/07 20:16:56;;;;;;;7.72;6.50;;;17.50;36.90;;;;;;5063565;28;20181;-74
2023/06/07 20:19:22;;;;;;;6.63;6.05;;;17.50;43.30;;;;;;5061886;28;20181;-73
2023/06/07 20:21:48;;;;;;;7.22;6.50;;;17.40;34.20;;;;;;5061161;28;20177;-73
2023/06/07 20:24:16;;;;;;;6.80;6.18;;;17.40;55.00;;;;;;5062116;28;21181;-73
2023/06/07 20:26:46;;;;;;;7.03;6.32;;;17.50;71.80;;;;;;5062482;28;20186;-73
2023/06/07 20:29:13;;;;;;;7.18;6.47;;;17.40;48.30;;;;;;5062413;28;20205;-73
2023/06/07 20:31:47;;;;;;;6.60;6.00;;;17.30;49.50;;;;;;5062828;28;20192;-74
2023/06/07 20:34:16;;;;;;;7.45;6.65;;;17.20;68.60;;;;;;5061722;28;20264;-74
2023/06/07 20:36:42;;;;;;;7.93;7.10;;;17.30;99.90;;;;;;5063127;28;20181;-75
2023/06/07 20:39:08;;;;;;;7.40;6.80;;;17.40;54.50;;;;;;5063618;28;20211;-75
2023/06/07 20:41:34;;;;;;;7.35;6.60;;;17.40;52.50;;;;;;5063181;28;20685;-76
2023/06/07 20:44:06;;;;;;;8.23;7.40;;;17.50;54.80;;;;;;5063277;28;20238;-74
2023/06/07 20:46:33;;;;;;;7.03;6.43;;;17.50;46.40;;;;;;5062689;28;20174;-74
2023/06/07 20:48:59;;;;;;;7.65;6.90;;;17.60;20.20;;;;;;5063075;28;20205;-74
2023/06/07 20:51:25;;;;;;;6.85;6.25;;;17.60;17.50;;;;;;5062336;28;20177;-75
2023/06/07 20:53:51;;;;;;;7.18;6.47;;;17.60;5.50;;;;;;5061444;28;20189;-73
2023/06/07 20:56:17;;;;;;;6.85;6.25;;;17.50;4.00;;;;;;5062024;28;20188;-73
2023/06/07 20:58:43;;;;;;;6.90;6.30;;;17.60;1.00;;;;;;5062387;28;20201;-73
2023/06/07 21:01:10;;;;;;;7.40;6.65;;;17.60;1.00;;;;;;5061592;28;20193;-74
2023/06/07 21:03:37;;;;;;;6.65;6.05;;;17.50;1.00;;;;;;5059939;28;20269;-74
2023/06/07 21:06:03;;;;;;;7.72;6.95;;;17.60;1.00;;;;;;5062561;28;20182;-75
2023/06/07 21:08:29;;;;;;;7.10;6.40;;;17.60;1.00;;;;;;5063152;28;20219;-73
2023/06/07 21:10:54;;;;;;;6.63;6.13;;;17.90;1.00;;;;;;5060712;28;20206;-73
2023/06/07 21:13:20;;;;;;;7.75;7.03;;;18.30;1.00;;;;;;5059779;28;20649;-74
2023/06/07 21:15:46;;;;;;;7.50;6.80;;;17.70;1.00;;;;;;5063814;28;20192;-74
2023/06/07 21:18:11;;;;;;;6.53;6.00;;;17.70;1.00;;;;;;5063568;28;20197;-74
2023/06/07 21:20:37;;;;;;;7.85;6.90;;;17.70;1.00;;;;;;5059681;28;20188;-74
2023/06/07 21:23:03;;;;;;;7.25;6.63;;;17.70;1.00;;;;;;5055305;28;20193;-74
2023/06/07 21:25:28;;;;;;;7.40;6.70;;;17.60;1.00;;;;;;5064308;28;20221;-73
2023/06/07 21:27:54;;;;;;;7.72;7.05;;;17.70;1.00;;;;;;5063877;28;20284;-74
2023/06/07 21:30:20;;;;;;;6.93;6.35;;;17.70;1.00;;;;;;5063882;28;20209;-73
2023/06/07 21:32:45;;;;;;;7.72;7.03;;;17.70;1.00;;;;;;5063487;28;20173;-75
2023/06/07 21:35:11;;;;;;;8.10;7.30;;;17.70;1.00;;;;;;5064383;28;20216;-74
2023/06/07 21:37:37;;;;;;;7.55;6.95;;;17.70;1.00;;;;;;5063590;28;20232;-74
2023/06/07 21:40:03;;;;;;;7.45;6.75;;;17.70;1.00;;;;;;5064147;28;20600;-75
2023/06/07 21:42:28;;;;;;;7.25;6.65;;;17.70;1.00;;;;;;5062804;28;20177;-74
2023/06/07 21:44:57;;;;;;;7.70;7.10;;;17.70;1.00;;;;;;5064013;28;20611;-73
2023/06/07 21:47:23;;;;;;;8.13;7.43;;;17.70;1.00;;;;;;5063805;28;20255;-75
2023/06/07 21:49:50;;;;;;;7.40;6.80;;;17.70;1.00;;;;;;5063706;28;20205;-74
2023/06/07 21:52:17;;;;;;;9.60;8.70;;;17.60;1.00;;;;;;5063684;28;20238;-73
2023/06/07 21:54:44;;;;;;;9.07;8.35;;;17.50;5.60;;;;;;5064078;28;20177;-74
2023/06/07 21:57:11;;;;;;;9.82;8.93;;;17.30;9.50;;;;;;5063765;28;20202;-74
2023/06/07 21:59:36;;;;;;;8.75;7.95;;;17.30;35.60;;;;;;5064123;28;20200;-74
2023/06/07 22:02:02;;;;;;;9.00;8.10;;;17.30;39.30;;;;;;5063302;28;20185;-75
2023/06/07 22:04:28;;;;;;;9.02;8.13;;;17.30;69.20;;;;;;5063692;28;20659;-73
2023/06/07 22:06:55;;;;;;;9.13;8.40;;;17.20;99.90;;;;;;5063714;28;20212;-74
2023/06/07 22:09:21;;;;;;;9.48;8.52;;;17.20;99.90;;;;;;5063864;28;20220;-74
2023/06/07 22:11:47;;;;;;;9.23;8.45;;;17.10;99.90;;;;;;5063692;28;20681;-73
2023/06/07 22:14:16;;;;;;;8.90;8.10;;;17.80;99.90;;;;;;5063995;28;20212;-73
2023/06/07 22:16:46;;;;;;;8.60;7.85;;;16.90;99.90;;;;;;5063943;28;20181;-74
2023/06/07 22:19:14;;;;;;;9.15;8.18;;;17.10;99.90;;;;;;5063921;28;20169;-73
2023/06/07 22:21:40;;;;;;;8.38;7.60;;;16.80;99.90;;;;;;5063552;28;20259;-74
2023/06/07 22:24:07;;;;;;;9.18;8.32;;;16.90;99.90;;;;;;5063188;28;20593;-74
2023/06/07 22:26:34;;;;;;;9.45;8.55;;;16.90;99.90;;;;;;5063275;28;20181;-75
2023/06/07 22:29:00;;;;;;;8.57;7.78;;;17.00;99.90;;;;;;5063442;28;20937;-74
2023/06/07 22:31:34;;;;;;;9.05;8.15;;;17.00;99.90;;;;;;5063542;28;20243;-74
2023/06/07 22:34:04;;;;;;;9.18;8.13;;;16.90;99.90;;;;;;5062562;28;20701;-73
2023/06/07 22:36:40;;;;;;;9.50;8.70;;;16.90;99.90;;;;;;5063656;28;20178;-72
2023/06/07 22:39:07;;;;;;;9.80;8.90;;;17.00;99.90;;;;;;5063907;28;20188;-73
2023/06/07 22:41:33;;;;;;;9.27;8.48;;;17.10;99.90;;;;;;5063319;28;20173;-72
2023/06/07 22:43:59;;;;;;;9.05;8.20;;;17.50;99.90;;;;;;5063154;28;20173;-73
2023/06/07 22:46:30;;;;;;;10.02;9.13;;;16.80;99.90;;;;;;5063393;28;20182;-74
2023/06/07 22:49:00;;;;;;;8.45;7.65;;;17.00;99.90;;;;;;5063464;28;20190;-73
2023/06/07 22:51:40;;;;;;;8.25;7.55;;;17.00;99.90;;;;;;5063564;28;20173;-73
2023/06/07 22:54:07;;;;;;;9.20;8.30;;;17.00;99.90;;;;;;5062983;28;20536;-73
2023/06/07 22:56:33;;;;;;;9.55;8.70;;;17.00;99.90;;;;;;5062953;28;20170;-73
2023/06/07 22:58:59;;;;;;;10.02;9.02;;;17.10;99.90;;;;;;5062250;28;20209;-74
2023/06/07 23:01:25;;;;;;;9.88;8.93;;;17.10;99.90;;;;;;5063555;28;20205;-74
2023/06/07 23:03:51;;;;;;;9.10;8.30;;;17.10;99.90;;;;;;5062779;28;20216;-74
2023/06/07 23:06:19;;;;;;;9.77;8.98;;;17.20;99.90;;;;;;5063379;28;20203;-72
2023/06/07 23:08:53;;;;;;;10.68;9.65;;;17.40;99.90;;;;;;5062863;28;20217;-72
2023/06/07 23:11:21;;;;;;;9.88;8.88;;;17.00;99.90;;;;;;5062244;28;20239;-74
2023/06/07 23:13:48;;;;;;;8.55;7.85;;;17.30;99.90;;;;;;5062969;28;20186;-73
2023/06/07 23:16:13;;;;;;;8.80;8.00;;;16.90;99.90;;;;;;5063221;28;20649;-73